createdAt,value
2024-01-27T00:01:38.598Z,72.44
2024-01-27T00:04:06.614Z,72.25
2024-01-27T00:06:37.249Z,71.72
2024-01-27T00:09:07.227Z,71.95
2024-01-27T00:11:35.481Z,71.85
2024-01-27T00:14:04.215Z,71.78
2024-01-27T00:16:32.303Z,71.66
2024-01-27T00:19:00.682Z,71.77
2024-01-27T00:21:28.979Z,71.76
2024-01-27T00:24:02.169Z,71.74
2024-01-27T00:26:30.434Z,71.71
2024-01-27T00:28:58.714Z,71.86
2024-01-27T00:31:26.766Z,71.81
2024-01-27T00:33:54.905Z,71.55
2024-01-27T00:36:23.152Z,71.59
2024-01-27T00:38:51.257Z,71.45
2024-01-27T00:41:20.115Z,71.42
2024-01-27T00:43:48.586Z,71.30
2024-01-27T00:46:16.594Z,71.27
2024-01-27T00:48:44.727Z,71.12
2024-01-27T00:51:13.140Z,71.18
2024-01-27T00:53:42.406Z,71.20
2024-01-27T00:56:10.641Z,71.22
2024-01-27T00:58:38.773Z,71.20
2024-01-27T01:01:07.275Z,71.15
2024-01-27T01:03:35.455Z,71.35
2024-01-27T01:06:04.360Z,71.32
2024-01-27T01:08:33.413Z,71.28
2024-01-27T01:11:01.434Z,71.43
2024-01-27T01:13:29.454Z,71.49
2024-01-27T01:15:57.770Z,71.41
2024-01-27T01:18:26.168Z,71.42
2024-01-27T01:20:54.477Z,71.16
2024-01-27T01:23:22.607Z,71.44
2024-01-27T01:25:50.824Z,71.38
2024-01-27T01:28:18.910Z,71.61
2024-01-27T01:30:47.021Z,71.49
2024-01-27T01:33:15.271Z,71.62
2024-01-27T01:35:43.425Z,71.68
2024-01-27T01:38:11.453Z,71.63
2024-01-27T01:40:39.498Z,71.59
2024-01-27T01:43:12.625Z,71.64
2024-01-27T01:45:40.719Z,71.59
2024-01-27T01:48:10.111Z,71.58
2024-01-27T01:50:38.283Z,71.53
2024-01-27T01:53:07.031Z,71.47
2024-01-27T01:55:35.783Z,71.40
2024-01-27T01:58:03.996Z,71.36
2024-01-27T02:00:32.853Z,71.22
2024-01-27T02:03:01.096Z,71.10
2024-01-27T02:05:29.410Z,71.06
2024-01-27T02:08:00.279Z,71.07
2024-01-27T02:10:28.318Z,71.01
2024-01-27T02:12:56.425Z,71.21
2024-01-27T02:15:24.451Z,71.23
2024-01-27T02:17:52.617Z,70.90
2024-01-27T02:20:20.785Z,70.69
2024-01-27T02:22:48.791Z,70.80
2024-01-27T02:25:16.876Z,70.66
2024-01-27T02:27:45.095Z,70.64
2024-01-27T02:30:13.331Z,70.60
2024-01-27T02:32:41.471Z,70.36
2024-01-27T02:35:09.801Z,69.96
2024-01-27T02:37:37.830Z,70.15
2024-01-27T02:40:07.284Z,70.13
2024-01-27T02:42:35.458Z,70.17
2024-01-27T02:45:04.222Z,70.29
2024-01-27T02:47:32.255Z,70.30
2024-01-27T02:50:00.358Z,70.27
2024-01-27T02:52:28.662Z,70.10
2024-01-27T02:54:57.157Z,70.13
2024-01-27T02:57:25.349Z,70.28
2024-01-27T02:59:53.687Z,70.09
2024-01-27T03:02:21.962Z,70.20
2024-01-27T03:04:50.009Z,69.69
2024-01-27T03:07:18.106Z,69.77
2024-01-27T03:09:46.252Z,69.76
2024-01-27T03:12:14.367Z,70.12
2024-01-27T03:14:43.133Z,70.11
2024-01-27T03:17:11.330Z,70.03
2024-01-27T03:19:39.439Z,69.87
2024-01-27T03:22:07.589Z,70.03
2024-01-27T03:24:35.681Z,69.97
2024-01-27T03:27:04.022Z,70.01
2024-01-27T03:29:32.054Z,70.08
2024-01-27T03:32:00.212Z,69.90
2024-01-27T03:34:29.609Z,69.93
2024-01-27T03:36:57.848Z,69.99
2024-01-27T03:39:25.883Z,70.04
2024-01-27T03:41:54.075Z,69.94
2024-01-27T03:44:22.158Z,69.84
2024-01-27T03:46:50.378Z,69.71
2024-01-27T03:49:18.531Z,69.71
2024-01-27T03:51:46.734Z,69.68
2024-01-27T03:54:14.875Z,69.68
2024-01-27T03:56:43.321Z,69.55
2024-01-27T03:59:12.687Z,69.66
2024-01-27T04:01:40.815Z,69.51
2024-01-27T04:04:08.919Z,69.58
2024-01-27T04:06:41.560Z,69.68
2024-01-27T04:09:12.889Z,69.58
2024-01-27T04:11:41.141Z,69.58
2024-01-27T04:14:10.240Z,69.58
2024-01-27T04:16:38.288Z,69.39
2024-01-27T04:19:06.633Z,69.38
2024-01-27T04:21:34.908Z,69.25
2024-01-27T04:24:03.322Z,69.27
2024-01-27T04:26:31.389Z,69.16
2024-01-27T04:28:59.466Z,69.19
2024-01-27T04:31:27.477Z,69.16
2024-01-27T04:33:55.681Z,69.23
2024-01-27T04:36:33.175Z,69.29
2024-01-27T04:39:01.486Z,69.29
2024-01-27T04:41:30.465Z,69.30
2024-01-27T04:44:00.114Z,69.30
2024-01-27T04:46:28.222Z,69.22
2024-01-27T04:48:56.706Z,68.98
2024-01-27T04:51:24.782Z,69.06
2024-01-27T04:53:52.900Z,69.10
2024-01-27T04:56:21.006Z,69.17
2024-01-27T04:58:49.052Z,69.17
2024-01-27T05:01:17.289Z,69.18
2024-01-27T05:03:46.174Z,69.07
2024-01-27T05:06:14.570Z,69.01
2024-01-27T05:08:42.665Z,69.09
2024-01-27T05:11:11.515Z,69.12
2024-01-27T05:13:41.565Z,69.17
2024-01-27T05:16:09.601Z,68.93
2024-01-27T05:18:37.755Z,69.04
2024-01-27T05:21:05.821Z,68.90
2024-01-27T05:23:33.909Z,68.85
2024-01-27T05:26:01.987Z,68.98
2024-01-27T05:28:30.096Z,68.93
2024-01-27T05:30:58.054Z,68.93
2024-01-27T05:33:26.176Z,69.02
2024-01-27T05:35:54.264Z,68.92
2024-01-27T05:38:23.350Z,69.03
2024-01-27T05:40:52.160Z,69.05
2024-01-27T05:43:20.281Z,69.13
2024-01-27T05:45:48.228Z,69.08
2024-01-27T05:48:16.952Z,69.13
2024-01-27T05:50:55.685Z,69.12
2024-01-27T05:53:24.004Z,69.01
2024-01-27T05:55:52.385Z,69.06
2024-01-27T05:58:22.393Z,69.07
2024-01-27T06:00:50.969Z,69.07
2024-01-27T06:03:19.249Z,69.23
2024-01-27T06:05:47.530Z,69.29
2024-01-27T06:08:15.584Z,69.18
2024-01-27T06:10:43.643Z,69.29
2024-01-27T06:13:11.820Z,69.22
2024-01-27T06:15:40.414Z,69.22
2024-01-27T06:18:08.597Z,69.33
2024-01-27T06:20:36.717Z,69.32
2024-01-27T06:23:04.968Z,69.29
2024-01-27T06:25:33.681Z,69.28
2024-01-27T06:28:01.987Z,69.31
2024-01-27T06:30:30.131Z,69.31
2024-01-27T06:32:58.434Z,69.33
2024-01-27T06:35:27.209Z,69.31
2024-01-27T06:37:55.283Z,69.30
2024-01-27T06:40:23.335Z,69.33
2024-01-27T06:42:52.028Z,69.21
2024-01-27T06:45:20.048Z,69.34
2024-01-27T06:47:48.305Z,69.39
2024-01-27T06:50:16.474Z,69.36
2024-01-27T06:52:44.660Z,69.36
2024-01-27T06:55:13.082Z,69.52
2024-01-27T06:57:44.254Z,69.49
2024-01-27T07:00:16.457Z,69.42
2024-01-27T07:02:45.515Z,69.37
2024-01-27T07:05:16.160Z,69.36
2024-01-27T07:07:44.464Z,69.42
2024-01-27T07:10:12.560Z,69.36
2024-01-27T07:12:40.691Z,69.53
2024-01-27T07:15:09.183Z,69.46
2024-01-27T07:17:37.285Z,69.47
2024-01-27T07:20:06.724Z,69.57
2024-01-27T07:22:35.006Z,69.52
2024-01-27T07:25:03.281Z,69.55
2024-01-27T07:27:31.692Z,69.67
2024-01-27T07:29:59.811Z,69.70
2024-01-27T07:32:27.862Z,69.56
2024-01-27T07:34:56.024Z,69.66
2024-01-27T07:37:24.210Z,69.54
2024-01-27T07:39:52.318Z,69.70
2024-01-27T07:42:20.494Z,70.11
2024-01-27T07:44:48.649Z,71.37
2024-01-27T07:47:16.779Z,71.57
2024-01-27T07:49:46.076Z,71.04
2024-01-27T07:52:14.323Z,71.67
2024-01-27T07:54:42.441Z,71.99
2024-01-27T07:57:10.576Z,71.00
2024-01-27T07:59:38.625Z,71.18
2024-01-27T08:02:06.688Z,71.05
2024-01-27T08:04:35.527Z,71.45
2024-01-27T08:07:11.115Z,71.63
2024-01-27T08:09:39.747Z,71.94
2024-01-27T08:12:08.157Z,71.86
2024-01-27T08:14:36.904Z,73.40
2024-01-27T08:17:05.308Z,73.14
2024-01-27T08:19:33.717Z,72.82
2024-01-27T08:22:02.015Z,69.67
2024-01-27T08:24:30.194Z,68.11
2024-01-27T08:26:59.600Z,68.38
2024-01-27T08:29:27.779Z,68.86
2024-01-27T08:31:55.918Z,68.61
2024-01-27T08:34:24.463Z,68.90
2024-01-27T08:36:52.818Z,69.09
2024-01-27T08:39:21.110Z,68.85
2024-01-27T08:41:49.203Z,68.99
2024-01-27T08:44:17.299Z,68.63
2024-01-27T08:46:45.412Z,68.64
2024-01-27T08:49:13.554Z,68.77
2024-01-27T08:51:41.653Z,68.62
2024-01-27T08:54:09.739Z,68.22
2024-01-27T08:56:41.678Z,68.53
2024-01-27T08:59:09.740Z,68.45
2024-01-27T09:01:37.961Z,68.43
2024-01-27T09:04:06.374Z,68.01
2024-01-27T09:06:34.821Z,68.01
2024-01-27T09:09:04.014Z,67.94
2024-01-27T09:11:33.496Z,67.96
2024-01-27T09:14:01.591Z,67.84
2024-01-27T09:16:29.820Z,67.77
2024-01-27T09:18:58.203Z,67.73
2024-01-27T09:21:30.056Z,67.64
2024-01-27T09:23:58.715Z,67.83
2024-01-27T09:26:27.067Z,68.11
2024-01-27T09:28:55.936Z,67.81
2024-01-27T09:31:25.160Z,67.97
2024-01-27T09:33:55.208Z,67.95
2024-01-27T09:36:24.036Z,67.83
2024-01-27T09:38:53.487Z,67.74
2024-01-27T09:41:22.351Z,67.33
2024-01-27T09:43:50.464Z,67.37
2024-01-27T09:46:18.789Z,67.28
2024-01-27T09:48:47.203Z,67.35
2024-01-27T09:51:15.812Z,67.54
2024-01-27T09:53:44.004Z,67.42
2024-01-27T09:56:19.234Z,67.40
2024-01-27T09:58:47.908Z,67.28
2024-01-27T10:01:18.047Z,67.16
2024-01-27T10:03:47.879Z,67.13
2024-01-27T10:06:16.782Z,67.26
2024-01-27T10:08:54.727Z,67.14
2024-01-27T10:11:26.291Z,67.09
2024-01-27T10:14:00.075Z,67.20
2024-01-27T10:16:29.290Z,67.11
2024-01-27T10:19:04.448Z,67.18
2024-01-27T10:21:32.988Z,67.00
2024-01-27T10:24:02.798Z,67.17
2024-01-27T10:26:34.768Z,66.95
2024-01-27T10:29:03.682Z,66.91
2024-01-27T10:31:37.798Z,66.84
2024-01-27T10:34:10.312Z,66.47
2024-01-27T10:36:43.240Z,66.46
2024-01-27T10:39:25.187Z,66.74
2024-01-27T10:41:53.646Z,66.74
2024-01-27T10:44:22.808Z,66.56
2024-01-27T10:46:51.534Z,66.46
2024-01-27T10:49:20.254Z,66.53
2024-01-27T10:51:59.808Z,66.43
2024-01-27T10:54:29.356Z,66.44
2024-01-27T10:56:59.957Z,66.42
2024-01-27T10:59:29.834Z,66.42
2024-01-27T11:01:58.790Z,66.55
2024-01-27T11:04:28.553Z,66.40
2024-01-27T11:06:58.090Z,66.29
2024-01-27T11:09:27.247Z,66.34
2024-01-27T11:11:55.666Z,66.50
2024-01-27T11:14:23.955Z,66.40
2024-01-27T11:16:58.868Z,66.22
2024-01-27T11:19:28.335Z,66.34
2024-01-27T11:22:04.327Z,66.00
2024-01-27T11:24:34.402Z,66.28
2024-01-27T11:27:07.630Z,66.14
2024-01-27T11:29:37.417Z,66.04
2024-01-27T11:32:06.045Z,65.99
2024-01-27T11:34:45.127Z,65.95
2024-01-27T11:37:15.868Z,65.96
2024-01-27T11:39:44.676Z,66.02
2024-01-27T11:42:14.914Z,65.86
2024-01-27T11:44:43.954Z,65.85
2024-01-27T11:47:20.201Z,66.12
2024-01-27T11:49:56.709Z,65.59
2024-01-27T11:52:26.515Z,65.74
2024-01-27T11:55:00.041Z,65.75
2024-01-27T11:57:28.829Z,65.63
2024-01-27T11:59:57.443Z,65.73
2024-01-27T12:02:25.703Z,65.55
2024-01-27T12:04:54.355Z,65.62
2024-01-27T12:07:23.812Z,65.57
2024-01-27T12:09:52.312Z,65.57
2024-01-27T12:12:21.401Z,65.31
2024-01-27T12:14:51.329Z,65.31
2024-01-27T12:17:20.370Z,65.42
2024-01-27T12:19:57.629Z,65.45
2024-01-27T12:22:30.599Z,65.23
2024-01-27T12:25:14.749Z,65.01
2024-01-27T12:27:43.048Z,65.33
2024-01-27T12:30:11.785Z,65.39
2024-01-27T12:32:40.485Z,65.50
2024-01-27T12:35:09.992Z,65.36
2024-01-27T12:37:38.790Z,65.47
2024-01-27T12:40:23.526Z,64.72
2024-01-27T12:42:53.128Z,64.68
2024-01-27T12:45:21.838Z,64.90
2024-01-27T12:47:51.057Z,64.98
2024-01-27T12:50:19.799Z,64.95
2024-01-27T12:52:48.819Z,64.80
2024-01-27T12:55:18.421Z,64.68
2024-01-27T12:57:50.277Z,64.78
2024-01-27T13:00:19.173Z,64.87
2024-01-27T13:02:47.454Z,64.84
2024-01-27T13:05:16.131Z,64.85
2024-01-27T13:07:46.323Z,64.74
2024-01-27T13:10:14.630Z,64.92
2024-01-27T13:12:42.807Z,64.92
2024-01-27T13:15:12.232Z,64.93
2024-01-27T13:17:41.804Z,64.89
2024-01-27T13:20:10.883Z,65.09
2024-01-27T13:22:39.081Z,65.07
2024-01-27T13:25:09.153Z,65.03
2024-01-27T13:27:38.019Z,65.15
2024-01-27T13:30:07.511Z,65.13
2024-01-27T13:32:35.752Z,65.11
2024-01-27T13:35:04.402Z,65.07
2024-01-27T13:37:35.098Z,65.12
2024-01-27T13:40:05.301Z,65.23
2024-01-27T13:42:34.006Z,65.17
2024-01-27T13:45:02.567Z,65.23
2024-01-27T13:47:31.129Z,65.22
2024-01-27T13:49:59.613Z,65.31
2024-01-27T13:52:28.631Z,65.38
2024-01-27T13:54:57.100Z,65.34
2024-01-27T13:57:25.318Z,65.15
2024-01-27T13:59:54.137Z,65.29
2024-01-27T14:02:23.719Z,65.20
2024-01-27T14:04:52.065Z,65.37
2024-01-27T14:07:20.405Z,65.34
2024-01-27T14:09:49.222Z,65.27
2024-01-27T14:12:17.425Z,65.36
2024-01-27T14:14:45.654Z,65.36
2024-01-27T14:17:13.845Z,65.43
2024-01-27T14:19:42.277Z,65.51
2024-01-27T14:22:10.462Z,65.47
2024-01-27T14:24:39.399Z,65.54
2024-01-27T14:27:11.552Z,65.48
2024-01-27T14:29:41.213Z,65.50
2024-01-27T14:32:11.505Z,65.51
2024-01-27T14:34:39.818Z,65.53
2024-01-27T14:37:10.977Z,65.66
2024-01-27T14:39:40.063Z,65.62
2024-01-27T14:42:10.340Z,65.74
2024-01-27T14:44:41.301Z,65.67
2024-01-27T14:47:11.538Z,65.79
2024-01-27T14:49:40.361Z,65.78
2024-01-27T14:52:08.649Z,65.77
2024-01-27T14:54:38.218Z,65.83
2024-01-27T14:57:10.226Z,65.81
2024-01-27T14:59:40.512Z,66.03
2024-01-27T15:02:11.613Z,65.98
2024-01-27T15:04:39.779Z,65.92
2024-01-27T15:07:10.280Z,66.08
2024-01-27T15:09:38.541Z,66.16
2024-01-27T15:12:07.310Z,66.22
2024-01-27T15:14:35.635Z,66.15
2024-01-27T15:17:03.952Z,66.22
2024-01-27T15:19:40.158Z,66.28
2024-01-27T15:22:10.248Z,66.31
2024-01-27T15:24:40.779Z,66.30
2024-01-27T15:27:12.016Z,66.34
2024-01-27T15:29:40.819Z,66.49
2024-01-27T15:32:09.433Z,66.47
2024-01-27T15:34:37.770Z,66.43
2024-01-27T15:37:07.297Z,66.43
2024-01-27T15:39:35.697Z,66.54
2024-01-27T15:42:05.447Z,66.59
2024-01-27T15:44:34.101Z,66.61
2024-01-27T15:47:02.640Z,66.78
2024-01-27T15:49:31.496Z,66.80
2024-01-27T15:51:59.629Z,66.83
2024-01-27T15:54:27.821Z,66.84
2024-01-27T15:56:56.431Z,66.77
2024-01-27T15:59:24.639Z,66.70
2024-01-27T16:01:53.759Z,66.90
2024-01-27T16:04:22.139Z,66.83
2024-01-27T16:06:50.503Z,67.04
2024-01-27T16:09:18.970Z,67.09
2024-01-27T16:11:47.124Z,67.06
2024-01-27T16:14:15.232Z,67.09
2024-01-27T16:16:43.492Z,67.18
2024-01-27T16:19:11.846Z,67.10
2024-01-27T16:21:39.909Z,67.18
2024-01-27T16:24:08.132Z,67.13
2024-01-27T16:26:36.395Z,67.17
2024-01-27T16:29:06.092Z,67.24
2024-01-27T16:31:34.720Z,67.24
2024-01-27T16:34:02.976Z,67.17
2024-01-27T16:36:31.099Z,67.23
2024-01-27T16:38:59.225Z,67.31
2024-01-27T16:41:27.683Z,67.23
2024-01-27T16:43:55.902Z,67.20
2024-01-27T16:46:25.812Z,67.36
2024-01-27T16:48:54.220Z,67.22
2024-01-27T16:51:22.345Z,67.27
2024-01-27T16:53:52.553Z,67.31
2024-01-27T16:56:20.815Z,67.40
2024-01-27T16:58:50.869Z,67.40
2024-01-27T17:01:19.958Z,67.45
2024-01-27T17:03:48.230Z,67.62
2024-01-27T17:06:16.419Z,67.48
2024-01-27T17:08:45.691Z,67.51
2024-01-27T17:11:20.947Z,67.46
2024-01-27T17:13:49.924Z,67.53
2024-01-27T17:16:18.235Z,67.64
2024-01-27T17:18:46.789Z,67.65
2024-01-27T17:21:15.162Z,67.60
2024-01-27T17:23:43.245Z,67.72
2024-01-27T17:26:12.808Z,67.69
2024-01-27T17:28:42.266Z,67.77
2024-01-27T17:31:12.766Z,67.81
2024-01-27T17:33:42.808Z,67.78
2024-01-27T17:36:13.292Z,67.89
2024-01-27T17:38:43.012Z,67.71
2024-01-27T17:41:11.970Z,67.79
2024-01-27T17:43:40.186Z,67.83
2024-01-27T17:46:08.864Z,67.94
2024-01-27T17:48:39.115Z,67.91
2024-01-27T17:51:11.511Z,68.04
2024-01-27T17:53:39.800Z,67.92
2024-01-27T17:56:07.906Z,67.97
2024-01-27T17:58:37.263Z,68.06
2024-01-27T18:01:05.516Z,68.14
2024-01-27T18:03:33.631Z,68.27
2024-01-27T18:06:02.011Z,68.33
2024-01-27T18:08:30.393Z,68.46
2024-01-27T18:10:58.575Z,68.42
2024-01-27T18:13:26.750Z,68.47
2024-01-27T18:15:54.880Z,68.62
2024-01-27T18:18:23.002Z,68.67
2024-01-27T18:20:51.216Z,68.70
2024-01-27T18:23:19.517Z,68.81
2024-01-27T18:25:48.024Z,68.92
2024-01-27T18:28:16.202Z,68.92
2024-01-27T18:30:44.937Z,68.93
2024-01-27T18:33:14.935Z,69.01
2024-01-27T18:35:43.234Z,69.13
2024-01-27T18:38:13.037Z,69.15
2024-01-27T18:40:41.330Z,69.18
2024-01-27T18:43:09.535Z,69.16
2024-01-27T18:45:39.893Z,69.28
2024-01-27T18:48:09.249Z,69.33
2024-01-27T18:50:38.615Z,69.25
2024-01-27T18:53:06.812Z,69.40
2024-01-27T18:55:41.106Z,69.53
2024-01-27T18:58:10.489Z,69.60
2024-01-27T19:00:39.074Z,69.66
2024-01-27T19:03:08.248Z,69.73
2024-01-27T19:05:36.614Z,69.94
2024-01-27T19:08:04.943Z,69.95
2024-01-27T19:10:34.038Z,69.87
2024-01-27T19:13:02.065Z,70.06
2024-01-27T19:15:30.161Z,70.14
2024-01-27T19:17:58.433Z,70.16
2024-01-27T19:20:26.803Z,70.14
2024-01-27T19:22:54.936Z,70.33
2024-01-27T19:25:23.862Z,70.20
2024-01-27T19:27:52.256Z,70.33
2024-01-27T19:30:20.448Z,70.32
2024-01-27T19:32:48.786Z,70.31
2024-01-27T19:35:17.600Z,70.27
2024-01-27T19:37:45.659Z,70.39
2024-01-27T19:40:14.185Z,70.27
2024-01-27T19:42:42.417Z,70.24
2024-01-27T19:45:11.260Z,70.24
2024-01-27T19:47:40.031Z,70.28
2024-01-27T19:50:08.786Z,70.25
2024-01-27T19:52:36.970Z,70.28
2024-01-27T19:55:06.390Z,70.18
2024-01-27T19:57:35.901Z,70.30
2024-01-27T20:00:05.741Z,70.30
2024-01-27T20:02:35.524Z,70.26
2024-01-27T20:05:05.549Z,70.26
2024-01-27T20:07:33.925Z,70.31
2024-01-27T20:10:05.964Z,70.28
2024-01-27T20:12:34.044Z,70.15
2024-01-27T20:15:02.291Z,70.22
2024-01-27T20:17:30.601Z,70.24
2024-01-27T20:19:59.311Z,70.22
2024-01-27T20:22:27.686Z,70.34
2024-01-27T20:24:56.844Z,70.17
2024-01-27T20:27:25.061Z,70.22
2024-01-27T20:29:53.233Z,70.22
2024-01-27T20:32:21.270Z,70.13
2024-01-27T20:34:50.327Z,70.28
2024-01-27T20:37:18.460Z,70.27
2024-01-27T20:39:48.963Z,70.20
2024-01-27T20:42:17.218Z,70.29
2024-01-27T20:44:45.460Z,70.19
2024-01-27T20:47:14.291Z,70.36
2024-01-27T20:49:42.810Z,70.34
2024-01-27T20:52:10.936Z,70.30
2024-01-27T20:54:39.503Z,70.27
2024-01-27T20:57:08.122Z,70.32
2024-01-27T20:59:37.796Z,70.32
2024-01-27T21:02:06.747Z,70.21
2024-01-27T21:04:34.878Z,70.35
2024-01-27T21:07:04.438Z,70.31
2024-01-27T21:09:32.550Z,70.27
2024-01-27T21:12:00.657Z,70.33
2024-01-27T21:14:30.535Z,70.30
2024-01-27T21:16:58.537Z,70.33
2024-01-27T21:19:26.681Z,70.28
2024-01-27T21:21:54.819Z,70.21
2024-01-27T21:24:22.930Z,70.28
2024-01-27T21:26:51.207Z,70.22
2024-01-27T21:29:19.954Z,70.34
2024-01-27T21:31:48.024Z,70.32
2024-01-27T21:34:16.202Z,70.37
2024-01-27T21:36:45.796Z,70.39
2024-01-27T21:39:15.242Z,70.33
2024-01-27T21:41:43.435Z,70.32
2024-01-27T21:44:11.562Z,70.25
2024-01-27T21:46:40.009Z,70.35
2024-01-27T21:49:08.436Z,70.49
2024-01-27T21:51:37.550Z,70.45
2024-01-27T21:54:06.428Z,70.33
2024-01-27T21:56:36.053Z,70.40
2024-01-27T21:59:06.378Z,70.40
2024-01-27T22:01:34.600Z,70.52
2024-01-27T22:04:03.025Z,70.43
2024-01-27T22:06:32.444Z,70.51
2024-01-27T22:09:01.086Z,70.43
2024-01-27T22:11:29.317Z,70.49
2024-01-27T22:13:58.170Z,70.42
2024-01-27T22:16:26.314Z,70.38
2024-01-27T22:18:54.456Z,70.39
2024-01-27T22:21:22.571Z,70.47
2024-01-27T22:23:50.988Z,70.66
2024-01-27T22:26:19.179Z,70.71
2024-01-27T22:28:47.253Z,70.73
2024-01-27T22:31:15.365Z,70.55
2024-01-27T22:33:43.494Z,70.53
2024-01-27T22:36:14.354Z,70.68
2024-01-27T22:38:44.388Z,70.58
2024-01-27T22:41:12.440Z,70.47
2024-01-27T22:43:40.691Z,70.53
2024-01-27T22:46:08.734Z,70.60
2024-01-27T22:48:36.915Z,70.49
2024-01-27T22:51:05.154Z,70.58
2024-01-27T22:53:33.255Z,70.52
2024-01-27T22:56:01.216Z,70.70
2024-01-27T22:58:32.648Z,70.66
2024-01-27T23:01:01.144Z,70.70
2024-01-27T23:03:29.756Z,70.66
2024-01-27T23:05:58.764Z,70.70
2024-01-27T23:08:26.961Z,70.64
2024-01-27T23:10:55.151Z,70.47
2024-01-27T23:13:24.001Z,70.57
2024-01-27T23:15:53.338Z,70.70
2024-01-27T23:18:21.708Z,70.64
2024-01-27T23:20:50.032Z,70.65
2024-01-27T23:23:18.175Z,70.75
2024-01-27T23:25:47.474Z,70.63
2024-01-27T23:28:15.700Z,70.73
2024-01-27T23:30:43.896Z,70.85
2024-01-27T23:33:12.144Z,70.78
2024-01-27T23:35:40.373Z,70.82
2024-01-27T23:38:08.424Z,70.92
2024-01-27T23:40:36.442Z,70.97
2024-01-27T23:43:04.869Z,70.93
2024-01-27T23:45:33.054Z,70.95
2024-01-27T23:48:03.934Z,71.12
2024-01-27T23:50:33.902Z,71.03
2024-01-27T23:53:08.986Z,71.23
2024-01-27T23:55:43.659Z,71.25
2024-01-27T23:58:12.832Z,71.24
